sensor_id;sensor_type;location;lat;lon;timestamp;P1;durP1;ratioP1;P2;durP2;ratioP2
47153;SDS011;32907;41.412;2.164;2023-06-14T00:47:28;4.10;;;2.20;;
47153;SDS011;32907;41.412;2.164;2023-06-14T00:49:58;3.15;;;1.77;;
47153;SDS011;32907;41.412;2.164;2023-06-14T01:30:20;3.00;;;1.73;;
47153;SDS011;32907;41.412;2.164;2023-06-14T01:32:55;2.42;;;1.40;;
47153;SDS011;32907;41.412;2.164;2023-06-14T01:36:46;4.20;;;1.70;;
47153;SDS011;32907;41.412;2.164;2023-06-14T01:39:19;3.53;;;1.55;;
47153;SDS011;32907;41.412;2.164;2023-06-14T01:41:53;2.38;;;1.30;;
47153;SDS011;32907;41.412;2.164;2023-06-14T01:44:24;3.88;;;1.40;;
47153;SDS011;32907;41.412;2.164;2023-06-14T01:52:39;2.67;;;1.60;;
47153;SDS011;32907;41.412;2.164;2023-06-14T01:55:14;2.40;;;1.52;;
47153;SDS011;32907;41.412;2.164;2023-06-14T01:57:48;2.78;;;1.50;;
47153;SDS011;32907;41.412;2.164;2023-06-14T02:00:27;2.33;;;1.23;;
47153;SDS011;32907;41.412;2.164;2023-06-14T02:15:38;2.22;;;1.48;;
47153;SDS011;32907;41.412;2.164;2023-06-14T02:18:10;4.80;;;1.40;;
47153;SDS011;32907;41.412;2.164;2023-06-14T02:30:02;1.85;;;1.27;;
47153;SDS011;32907;41.412;2.164;2023-06-14T02:35:43;1.67;;;1.15;;
47153;SDS011;32907;41.412;2.164;2023-06-14T02:38:12;2.13;;;1.30;;
47153;SDS011;32907;41.412;2.164;2023-06-14T02:40:42;1.90;;;1.35;;
47153;SDS011;32907;41.412;2.164;2023-06-14T02:43:13;2.05;;;1.02;;
47153;SDS011;32907;41.412;2.164;2023-06-14T02:45:48;2.15;;;1.38;;
47153;SDS011;32907;41.412;2.164;2023-06-14T02:48:17;2.55;;;1.30;;
47153;SDS011;32907;41.412;2.164;2023-06-14T02:50:46;1.98;;;1.20;;
47153;SDS011;32907;41.412;2.164;2023-06-14T02:59:30;3.58;;;1.38;;
47153;SDS011;32907;41.412;2.164;2023-06-14T03:02:00;1.70;;;1.05;;
47153;SDS011;32907;41.412;2.164;2023-06-14T03:13:52;2.72;;;1.10;;
47153;SDS011;32907;41.412;2.164;2023-06-14T03:16:26;1.80;;;1.13;;
47153;SDS011;32907;41.412;2.164;2023-06-14T03:18:57;1.20;;;0.80;;
47153;SDS011;32907;41.412;2.164;2023-06-14T03:21:32;2.25;;;1.13;;
47153;SDS011;32907;41.412;2.164;2023-06-14T03:24:05;1.70;;;1.15;;
47153;SDS011;32907;41.412;2.164;2023-06-14T03:26:44;2.83;;;1.00;;
47153;SDS011;32907;41.412;2.164;2023-06-14T03:29:16;2.50;;;1.00;;
47153;SDS011;32907;41.412;2.164;2023-06-14T03:32:00;1.58;;;1.02;;
47153;SDS011;32907;41.412;2.164;2023-06-14T03:34:39;1.83;;;1.02;;
47153;SDS011;32907;41.412;2.164;2023-06-14T03:37:22;2.10;;;1.25;;
47153;SDS011;32907;41.412;2.164;2023-06-14T03:39:59;2.55;;;1.15;;
47153;SDS011;32907;41.412;2.164;2023-06-14T03:42:40;2.05;;;1.30;;
47153;SDS011;32907;41.412;2.164;2023-06-14T03:45:20;2.20;;;1.08;;
47153;SDS011;32907;41.412;2.164;2023-06-14T03:47:57;2.13;;;1.27;;
47153;SDS011;32907;41.412;2.164;2023-06-14T03:50:31;1.85;;;1.20;;
47153;SDS011;32907;41.412;2.164;2023-06-14T03:53:07;2.42;;;1.23;;
47153;SDS011;32907;41.412;2.164;2023-06-14T03:55:39;2.28;;;1.30;;
47153;SDS011;32907;41.412;2.164;2023-06-14T03:58:13;2.13;;;1.10;;
47153;SDS011;32907;41.412;2.164;2023-06-14T04:00:50;2.17;;;1.40;;
47153;SDS011;32907;41.412;2.164;2023-06-14T04:16:00;2.05;;;1.20;;
47153;SDS011;32907;41.412;2.164;2023-06-14T04:18:37;2.42;;;1.75;;
47153;SDS011;32907;41.412;2.164;2023-06-14T04:23:39;3.17;;;2.10;;
47153;SDS011;32907;41.412;2.164;2023-06-14T04:26:13;2.88;;;1.95;;
47153;SDS011;32907;41.412;2.164;2023-06-14T04:31:57;3.05;;;2.35;;
47153;SDS011;32907;41.412;2.164;2023-06-14T04:34:29;4.25;;;2.28;;
47153;SDS011;32907;41.412;2.164;2023-06-14T04:37:08;3.25;;;2.30;;
47153;SDS011;32907;41.412;2.164;2023-06-14T05:14:20;25.42;;;7.60;;
47153;SDS011;32907;41.412;2.164;2023-06-14T05:16:56;11.38;;;4.60;;
47153;SDS011;32907;41.412;2.164;2023-06-14T05:19:25;15.88;;;4.60;;
47153;SDS011;32907;41.412;2.164;2023-06-14T05:21:54;10.10;;;3.78;;
47153;SDS011;32907;41.412;2.164;2023-06-14T05:24:27;10.70;;;2.90;;
47153;SDS011;32907;41.412;2.164;2023-06-14T05:26:58;10.68;;;3.28;;
47153;SDS011;32907;41.412;2.164;2023-06-14T05:38:26;6.70;;;2.58;;
47153;SDS011;32907;41.412;2.164;2023-06-14T05:53:31;4.55;;;3.50;;
47153;SDS011;32907;41.412;2.164;2023-06-14T05:56:00;4.35;;;3.10;;
47153;SDS011;32907;41.412;2.164;2023-06-14T06:14:19;4.85;;;2.45;;
47153;SDS011;32907;41.412;2.164;2023-06-14T06:16:48;5.90;;;2.58;;
47153;SDS011;32907;41.412;2.164;2023-06-14T07:13:12;6.65;;;1.75;;
47153;SDS011;32907;41.412;2.164;2023-06-14T07:37:43;11.30;;;2.60;;
47153;SDS011;32907;41.412;2.164;2023-06-14T07:49:47;3.40;;;1.30;;
47153;SDS011;32907;41.412;2.164;2023-06-14T07:52:18;4.82;;;1.60;;
47153;SDS011;32907;41.412;2.164;2023-06-14T07:57:55;4.25;;;1.67;;
47153;SDS011;32907;41.412;2.164;2023-06-14T08:00:32;3.40;;;1.48;;
47153;SDS011;32907;41.412;2.164;2023-06-14T08:03:01;4.15;;;1.70;;
47153;SDS011;32907;41.412;2.164;2023-06-14T08:05:36;4.65;;;1.58;;
47153;SDS011;32907;41.412;2.164;2023-06-14T08:08:09;3.28;;;1.52;;
47153;SDS011;32907;41.412;2.164;2023-06-14T08:10:38;3.00;;;1.80;;
47153;SDS011;32907;41.412;2.164;2023-06-14T08:16:17;3.05;;;1.70;;
47153;SDS011;32907;41.412;2.164;2023-06-14T08:18:48;3.97;;;2.20;;
47153;SDS011;32907;41.412;2.164;2023-06-14T08:21:18;3.38;;;1.85;;
47153;SDS011;32907;41.412;2.164;2023-06-14T08:23:58;5.40;;;2.13;;
47153;SDS011;32907;41.412;2.164;2023-06-14T08:26:30;2.92;;;1.65;;
47153;SDS011;32907;41.412;2.164;2023-06-14T08:28:59;3.45;;;1.70;;
47153;SDS011;32907;41.412;2.164;2023-06-14T08:31:28;2.95;;;1.65;;
47153;SDS011;32907;41.412;2.164;2023-06-14T08:34:00;4.28;;;2.00;;
47153;SDS011;32907;41.412;2.164;2023-06-14T08:36:35;3.15;;;1.77;;
47153;SDS011;32907;41.412;2.164;2023-06-14T08:39:05;5.63;;;2.17;;
47153;SDS011;32907;41.412;2.164;2023-06-14T08:41:33;6.15;;;2.47;;
47153;SDS011;32907;41.412;2.164;2023-06-14T08:44:01;4.10;;;2.22;;
47153;SDS011;32907;41.412;2.164;2023-06-14T08:46:32;3.35;;;1.98;;
47153;SDS011;32907;41.412;2.164;2023-06-14T08:49:01;8.00;;;2.63;;
47153;SDS011;32907;41.412;2.164;2023-06-14T08:51:31;6.70;;;2.03;;
47153;SDS011;32907;41.412;2.164;2023-06-14T08:54:04;4.97;;;2.15;;
47153;SDS011;32907;41.412;2.164;2023-06-14T08:56:32;6.47;;;2.35;;
47153;SDS011;32907;41.412;2.164;2023-06-14T08:59:01;4.53;;;2.40;;
47153;SDS011;32907;41.412;2.164;2023-06-14T09:01:34;7.13;;;2.50;;
47153;SDS011;32907;41.412;2.164;2023-06-14T09:04:02;3.05;;;1.90;;
47153;SDS011;32907;41.412;2.164;2023-06-14T09:06:32;4.30;;;1.80;;
47153;SDS011;32907;41.412;2.164;2023-06-14T09:09:00;5.07;;;2.13;;
47153;SDS011;32907;41.412;2.164;2023-06-14T09:11:30;3.47;;;2.03;;
47153;SDS011;32907;41.412;2.164;2023-06-14T09:13:58;5.45;;;2.00;;
47153;SDS011;32907;41.412;2.164;2023-06-14T09:16:26;8.23;;;2.05;;
47153;SDS011;32907;41.412;2.164;2023-06-14T09:18:54;4.82;;;1.98;;
47153;SDS011;32907;41.412;2.164;2023-06-14T09:21:24;9.32;;;2.05;;
47153;SDS011;32907;41.412;2.164;2023-06-14T09:23:53;4.28;;;1.88;;
47153;SDS011;32907;41.412;2.164;2023-06-14T09:26:22;8.63;;;1.60;;
47153;SDS011;32907;41.412;2.164;2023-06-14T09:28:50;6.07;;;1.50;;
47153;SDS011;32907;41.412;2.164;2023-06-14T09:31:19;6.40;;;2.05;;
47153;SDS011;32907;41.412;2.164;2023-06-14T09:33:48;3.67;;;1.60;;
47153;SDS011;32907;41.412;2.164;2023-06-14T09:36:18;4.90;;;1.92;;
47153;SDS011;32907;41.412;2.164;2023-06-14T09:38:52;4.28;;;1.95;;
47153;SDS011;32907;41.412;2.164;2023-06-14T09:41:31;4.45;;;1.88;;
47153;SDS011;32907;41.412;2.164;2023-06-14T09:43:59;3.95;;;2.00;;
47153;SDS011;32907;41.412;2.164;2023-06-14T09:46:35;3.95;;;2.03;;
47153;SDS011;32907;41.412;2.164;2023-06-14T09:49:04;4.88;;;2.97;;
47153;SDS011;32907;41.412;2.164;2023-06-14T09:51:33;6.97;;;4.22;;
47153;SDS011;32907;41.412;2.164;2023-06-14T09:54:04;5.90;;;4.28;;
47153;SDS011;32907;41.412;2.164;2023-06-14T09:56:35;5.32;;;3.70;;
47153;SDS011;32907;41.412;2.164;2023-06-14T09:59:08;6.07;;;3.65;;
47153;SDS011;32907;41.412;2.164;2023-06-14T10:01:40;4.22;;;2.78;;
47153;SDS011;32907;41.412;2.164;2023-06-14T10:04:10;4.00;;;2.67;;
47153;SDS011;32907;41.412;2.164;2023-06-14T10:06:43;4.65;;;2.60;;
47153;SDS011;32907;41.412;2.164;2023-06-14T10:09:13;4.95;;;2.95;;
47153;SDS011;32907;41.412;2.164;2023-06-14T10:11:41;3.90;;;2.67;;
47153;SDS011;32907;41.412;2.164;2023-06-14T10:14:12;4.25;;;2.63;;
47153;SDS011;32907;41.412;2.164;2023-06-14T10:19:46;5.38;;;2.78;;
47153;SDS011;32907;41.412;2.164;2023-06-14T10:22:25;3.70;;;2.72;;
47153;SDS011;32907;41.412;2.164;2023-06-14T10:24:58;4.53;;;2.88;;
47153;SDS011;32907;41.412;2.164;2023-06-14T10:27:26;6.07;;;3.15;;
47153;SDS011;32907;41.412;2.164;2023-06-14T10:32:25;4.88;;;2.63;;
47153;SDS011;32907;41.412;2.164;2023-06-14T10:34:55;6.03;;;2.90;;
47153;SDS011;32907;41.412;2.164;2023-06-14T10:37:25;5.00;;;2.47;;
47153;SDS011;32907;41.412;2.164;2023-06-14T10:39:54;5.75;;;2.83;;
47153;SDS011;32907;41.412;2.164;2023-06-14T10:42:31;5.72;;;2.75;;
47153;SDS011;32907;41.412;2.164;2023-06-14T10:45:00;5.85;;;2.90;;
47153;SDS011;32907;41.412;2.164;2023-06-14T10:47:31;6.68;;;3.08;;
47153;SDS011;32907;41.412;2.164;2023-06-14T10:52:33;7.75;;;3.30;;
47153;SDS011;32907;41.412;2.164;2023-06-14T10:55:05;9.52;;;3.35;;
47153;SDS011;32907;41.412;2.164;2023-06-14T11:00:19;4.55;;;2.33;;
47153;SDS011;32907;41.412;2.164;2023-06-14T11:05:29;7.13;;;2.10;;
47153;SDS011;32907;41.412;2.164;2023-06-14T11:13:04;3.90;;;1.80;;
47153;SDS011;32907;41.412;2.164;2023-06-14T11:15:33;6.53;;;3.05;;
47153;SDS011;32907;41.412;2.164;2023-06-14T11:18:07;4.88;;;2.97;;
47153;SDS011;32907;41.412;2.164;2023-06-14T11:20:37;4.82;;;2.35;;
47153;SDS011;32907;41.412;2.164;2023-06-14T11:23:07;4.82;;;1.92;;
47153;SDS011;32907;41.412;2.164;2023-06-14T11:25:35;6.20;;;2.20;;
47153;SDS011;32907;41.412;2.164;2023-06-14T11:28:04;5.95;;;2.15;;
47153;SDS011;32907;41.412;2.164;2023-06-14T11:30:32;4.15;;;2.13;;
47153;SDS011;32907;41.412;2.164;2023-06-14T11:33:01;6.47;;;1.60;;
47153;SDS011;32907;41.412;2.164;2023-06-14T11:35:29;4.57;;;1.30;;
47153;SDS011;32907;41.412;2.164;2023-06-14T11:37:57;3.00;;;1.40;;
47153;SDS011;32907;41.412;2.164;2023-06-14T11:40:26;2.80;;;1.60;;
47153;SDS011;32907;41.412;2.164;2023-06-14T11:42:58;2.95;;;1.60;;
47153;SDS011;32907;41.412;2.164;2023-06-14T11:46:00;2.80;;;1.70;;
47153;SDS011;32907;41.412;2.164;2023-06-14T11:48:42;8.32;;;2.00;;
47153;SDS011;32907;41.412;2.164;2023-06-14T11:51:10;4.65;;;1.88;;
47153;SDS011;32907;41.412;2.164;2023-06-14T11:53:38;2.90;;;1.85;;
47153;SDS011;32907;41.412;2.164;2023-06-14T11:56:06;2.55;;;1.60;;
47153;SDS011;32907;41.412;2.164;2023-06-14T11:58:34;3.65;;;2.00;;
47153;SDS011;32907;41.412;2.164;2023-06-14T12:01:05;6.57;;;2.55;;
47153;SDS011;32907;41.412;2.164;2023-06-14T12:03:33;11.07;;;5.38;;
47153;SDS011;32907;41.412;2.164;2023-06-14T12:06:07;20.70;;;9.05;;
47153;SDS011;32907;41.412;2.164;2023-06-14T12:08:38;14.52;;;7.65;;
47153;SDS011;32907;41.412;2.164;2023-06-14T12:11:13;17.38;;;5.45;;
47153;SDS011;32907;41.412;2.164;2023-06-14T12:13:45;7.47;;;3.45;;
47153;SDS011;32907;41.412;2.164;2023-06-14T12:16:31;6.80;;;2.67;;
47153;SDS011;32907;41.412;2.164;2023-06-14T12:19:01;6.68;;;2.80;;
47153;SDS011;32907;41.412;2.164;2023-06-14T12:21:38;6.43;;;2.95;;
47153;SDS011;32907;41.412;2.164;2023-06-14T12:24:08;7.55;;;3.75;;
47153;SDS011;32907;41.412;2.164;2023-06-14T12:26:41;10.65;;;6.00;;
47153;SDS011;32907;41.412;2.164;2023-06-14T12:29:09;23.60;;;15.35;;
47153;SDS011;32907;41.412;2.164;2023-06-14T12:31:37;29.88;;;17.75;;
47153;SDS011;32907;41.412;2.164;2023-06-14T12:34:05;18.33;;;11.20;;
47153;SDS011;32907;41.412;2.164;2023-06-14T12:36:35;12.73;;;8.02;;
47153;SDS011;32907;41.412;2.164;2023-06-14T12:39:09;7.18;;;4.88;;
47153;SDS011;32907;41.412;2.164;2023-06-14T12:41:37;5.85;;;3.20;;
47153;SDS011;32907;41.412;2.164;2023-06-14T12:44:05;6.43;;;3.55;;
47153;SDS011;32907;41.412;2.164;2023-06-14T12:46:33;6.15;;;3.58;;
47153;SDS011;32907;41.412;2.164;2023-06-14T12:49:05;4.47;;;3.00;;
47153;SDS011;32907;41.412;2.164;2023-06-14T12:51:38;3.63;;;2.40;;
47153;SDS011;32907;41.412;2.164;2023-06-14T12:54:07;4.32;;;3.28;;
47153;SDS011;32907;41.412;2.164;2023-06-14T12:56:34;4.30;;;2.50;;
47153;SDS011;32907;41.412;2.164;2023-06-14T13:02:11;2.92;;;1.67;;
47153;SDS011;32907;41.412;2.164;2023-06-14T13:04:44;3.25;;;1.90;;
47153;SDS011;32907;41.412;2.164;2023-06-14T13:07:13;5.85;;;2.08;;
47153;SDS011;32907;41.412;2.164;2023-06-14T13:09:52;4.78;;;1.90;;
47153;SDS011;32907;41.412;2.164;2023-06-14T13:12:21;4.90;;;2.33;;
47153;SDS011;32907;41.412;2.164;2023-06-14T13:21:36;3.00;;;1.75;;
47153;SDS011;32907;41.412;2.164;2023-06-14T13:30:25;3.85;;;1.85;;
47153;SDS011;32907;41.412;2.164;2023-06-14T13:32:59;4.38;;;1.80;;
47153;SDS011;32907;41.412;2.164;2023-06-14T13:35:28;7.15;;;2.85;;
47153;SDS011;32907;41.412;2.164;2023-06-14T13:38:53;20.45;;;6.35;;
47153;SDS011;32907;41.412;2.164;2023-06-14T13:41:48;28.20;;;11.88;;
47153;SDS011;32907;41.412;2.164;2023-06-14T13:44:16;50.90;;;17.17;;
47153;SDS011;32907;41.412;2.164;2023-06-14T13:46:52;35.35;;;14.35;;
47153;SDS011;32907;41.412;2.164;2023-06-14T14:09:24;7.53;;;2.50;;
47153;SDS011;32907;41.412;2.164;2023-06-14T14:11:56;5.00;;;2.10;;
47153;SDS011;32907;41.412;2.164;2023-06-14T14:14:26;3.88;;;2.10;;
47153;SDS011;32907;41.412;2.164;2023-06-14T14:17:00;7.00;;;2.40;;
47153;SDS011;32907;41.412;2.164;2023-06-14T14:19:31;4.97;;;2.22;;
47153;SDS011;32907;41.412;2.164;2023-06-14T14:22:03;3.58;;;2.38;;
47153;SDS011;32907;41.412;2.164;2023-06-14T14:59:31;8.93;;;3.30;;
47153;SDS011;32907;41.412;2.164;2023-06-14T15:01:58;6.88;;;2.83;;
47153;SDS011;32907;41.412;2.164;2023-06-14T15:04:26;9.23;;;2.40;;
47153;SDS011;32907;41.412;2.164;2023-06-14T15:06:54;4.68;;;2.33;;
47153;SDS011;32907;41.412;2.164;2023-06-14T15:09:22;7.50;;;2.92;;
47153;SDS011;32907;41.412;2.164;2023-06-14T15:11:50;6.00;;;2.88;;
47153;SDS011;32907;41.412;2.164;2023-06-14T15:14:17;4.22;;;2.30;;
47153;SDS011;32907;41.412;2.164;2023-06-14T15:16:46;2.95;;;1.88;;
47153;SDS011;32907;41.412;2.164;2023-06-14T15:19:14;4.95;;;1.65;;
47153;SDS011;32907;41.412;2.164;2023-06-14T15:21:42;5.90;;;2.15;;
47153;SDS011;32907;41.412;2.164;2023-06-14T15:24:10;4.95;;;2.20;;
47153;SDS011;32907;41.412;2.164;2023-06-14T15:26:37;5.15;;;2.30;;
47153;SDS011;32907;41.412;2.164;2023-06-14T15:29:05;5.18;;;1.92;;
47153;SDS011;32907;41.412;2.164;2023-06-14T15:31:33;3.28;;;1.75;;
47153;SDS011;32907;41.412;2.164;2023-06-14T15:34:01;3.05;;;1.90;;
47153;SDS011;32907;41.412;2.164;2023-06-14T15:36:29;2.42;;;1.50;;
47153;SDS011;32907;41.412;2.164;2023-06-14T15:38:57;5.30;;;1.90;;
47153;SDS011;32907;41.412;2.164;2023-06-14T15:41:24;4.05;;;2.05;;
47153;SDS011;32907;41.412;2.164;2023-06-14T15:43:53;4.47;;;2.35;;
47153;SDS011;32907;41.412;2.164;2023-06-14T15:46:21;3.50;;;1.80;;
47153;SDS011;32907;41.412;2.164;2023-06-14T15:48:50;4.22;;;1.52;;
47153;SDS011;32907;41.412;2.164;2023-06-14T15:51:18;4.25;;;2.10;;
47153;SDS011;32907;41.412;2.164;2023-06-14T15:53:46;3.53;;;1.50;;
47153;SDS011;32907;41.412;2.164;2023-06-14T15:56:13;3.35;;;1.95;;
47153;SDS011;32907;41.412;2.164;2023-06-14T15:58:41;5.97;;;2.22;;
47153;SDS011;32907;41.412;2.164;2023-06-14T16:01:09;4.40;;;2.15;;
47153;SDS011;32907;41.412;2.164;2023-06-14T16:03:37;4.40;;;1.90;;
47153;SDS011;32907;41.412;2.164;2023-06-14T16:06:05;4.07;;;1.70;;
47153;SDS011;32907;41.412;2.164;2023-06-14T16:08:33;2.92;;;1.90;;
47153;SDS011;32907;41.412;2.164;2023-06-14T16:11:07;2.50;;;1.60;;
47153;SDS011;32907;41.412;2.164;2023-06-14T16:13:36;3.47;;;1.42;;
47153;SDS011;32907;41.412;2.164;2023-06-14T16:16:04;4.07;;;1.50;;
47153;SDS011;32907;41.412;2.164;2023-06-14T16:18:32;4.75;;;1.90;;
47153;SDS011;32907;41.412;2.164;2023-06-14T16:21:00;2.90;;;1.60;;
47153;SDS011;32907;41.412;2.164;2023-06-14T16:23:29;3.20;;;1.95;;
47153;SDS011;32907;41.412;2.164;2023-06-14T16:25:57;3.22;;;2.10;;
47153;SDS011;32907;41.412;2.164;2023-06-14T16:28:24;4.45;;;1.80;;
47153;SDS011;32907;41.412;2.164;2023-06-14T16:30:52;4.28;;;1.80;;
47153;SDS011;32907;41.412;2.164;2023-06-14T16:33:20;6.57;;;2.80;;
47153;SDS011;32907;41.412;2.164;2023-06-14T16:35:48;4.32;;;2.90;;
47153;SDS011;32907;41.412;2.164;2023-06-14T16:38:17;4.18;;;2.60;;
47153;SDS011;32907;41.412;2.164;2023-06-14T16:40:47;5.43;;;1.92;;
47153;SDS011;32907;41.412;2.164;2023-06-14T16:43:16;2.95;;;1.98;;
47153;SDS011;32907;41.412;2.164;2023-06-14T16:45:44;2.55;;;1.65;;
47153;SDS011;32907;41.412;2.164;2023-06-14T16:48:13;3.83;;;1.80;;
47153;SDS011;32907;41.412;2.164;2023-06-14T16:50:40;4.38;;;1.70;;
47153;SDS011;32907;41.412;2.164;2023-06-14T16:53:08;5.10;;;1.70;;
47153;SDS011;32907;41.412;2.164;2023-06-14T16:55:38;3.70;;;1.98;;
47153;SDS011;32907;41.412;2.164;2023-06-14T16:58:06;3.58;;;1.80;;
47153;SDS011;32907;41.412;2.164;2023-06-14T17:00:34;3.28;;;2.20;;
47153;SDS011;32907;41.412;2.164;2023-06-14T17:03:02;3.22;;;2.25;;
47153;SDS011;32907;41.412;2.164;2023-06-14T17:05:32;4.35;;;2.42;;
47153;SDS011;32907;41.412;2.164;2023-06-14T17:08:00;3.80;;;2.45;;
47153;SDS011;32907;41.412;2.164;2023-06-14T17:10:28;3.85;;;2.00;;
47153;SDS011;32907;41.412;2.164;2023-06-14T17:12:56;3.30;;;2.08;;
47153;SDS011;32907;41.412;2.164;2023-06-14T17:15:28;5.20;;;1.75;;
47153;SDS011;32907;41.412;2.164;2023-06-14T17:17:56;3.72;;;1.75;;
47153;SDS011;32907;41.412;2.164;2023-06-14T17:20:24;3.55;;;1.80;;
47153;SDS011;32907;41.412;2.164;2023-06-14T17:22:54;4.10;;;2.00;;
47153;SDS011;32907;41.412;2.164;2023-06-14T17:25:22;2.60;;;1.80;;
47153;SDS011;32907;41.412;2.164;2023-06-14T17:27:50;6.10;;;2.30;;
47153;SDS011;32907;41.412;2.164;2023-06-14T17:30:18;3.65;;;2.05;;
47153;SDS011;32907;41.412;2.164;2023-06-14T17:32:46;3.65;;;1.80;;
47153;SDS011;32907;41.412;2.164;2023-06-14T17:35:14;4.13;;;2.08;;
47153;SDS011;32907;41.412;2.164;2023-06-14T17:37:42;3.38;;;2.25;;
47153;SDS011;32907;41.412;2.164;2023-06-14T17:40:10;5.47;;;2.85;;
47153;SDS011;32907;41.412;2.164;2023-06-14T17:42:37;7.97;;;3.25;;
47153;SDS011;32907;41.412;2.164;2023-06-14T17:45:05;6.88;;;4.40;;
47153;SDS011;32907;41.412;2.164;2023-06-14T17:47:34;7.20;;;4.68;;
47153;SDS011;32907;41.412;2.164;2023-06-14T17:50:03;6.50;;;5.25;;
47153;SDS011;32907;41.412;2.164;2023-06-14T17:52:33;6.43;;;4.38;;
47153;SDS011;32907;41.412;2.164;2023-06-14T17:55:00;7.82;;;4.70;;
47153;SDS011;32907;41.412;2.164;2023-06-14T17:57:29;5.50;;;4.07;;
47153;SDS011;32907;41.412;2.164;2023-06-14T17:59:57;5.43;;;3.25;;
47153;SDS011;32907;41.412;2.164;2023-06-14T18:02:25;5.10;;;2.97;;
47153;SDS011;32907;41.412;2.164;2023-06-14T18:04:53;3.85;;;2.40;;
47153;SDS011;32907;41.412;2.164;2023-06-14T18:07:21;3.33;;;2.10;;
47153;SDS011;32907;41.412;2.164;2023-06-14T18:09:49;2.78;;;1.95;;
47153;SDS011;32907;41.412;2.164;2023-06-14T18:12:16;2.53;;;1.70;;
47153;SDS011;32907;41.412;2.164;2023-06-14T18:14:45;3.38;;;1.67;;
47153;SDS011;32907;41.412;2.164;2023-06-14T18:17:15;3.28;;;2.00;;
47153;SDS011;32907;41.412;2.164;2023-06-14T18:19:43;3.85;;;2.03;;
47153;SDS011;32907;41.412;2.164;2023-06-14T18:22:14;2.60;;;2.08;;
47153;SDS011;32907;41.412;2.164;2023-06-14T18:24:42;2.67;;;2.00;;
47153;SDS011;32907;41.412;2.164;2023-06-14T18:27:10;4.63;;;2.13;;
47153;SDS011;32907;41.412;2.164;2023-06-14T18:29:39;4.45;;;3.03;;
47153;SDS011;32907;41.412;2.164;2023-06-14T18:32:07;3.67;;;3.17;;
47153;SDS011;32907;41.412;2.164;2023-06-14T18:34:35;5.10;;;2.60;;
47153;SDS011;32907;41.412;2.164;2023-06-14T18:37:03;4.55;;;3.55;;
47153;SDS011;32907;41.412;2.164;2023-06-14T18:39:32;7.47;;;5.85;;
47153;SDS011;32907;41.412;2.164;2023-06-14T18:42:00;8.55;;;5.75;;
47153;SDS011;32907;41.412;2.164;2023-06-14T18:44:28;10.38;;;6.40;;
47153;SDS011;32907;41.412;2.164;2023-06-14T18:46:56;14.07;;;7.30;;
47153;SDS011;32907;41.412;2.164;2023-06-14T18:49:24;19.77;;;11.68;;
47153;SDS011;32907;41.412;2.164;2023-06-14T18:51:52;15.73;;;9.80;;
47153;SDS011;32907;41.412;2.164;2023-06-14T18:54:19;12.02;;;7.22;;
47153;SDS011;32907;41.412;2.164;2023-06-14T18:56:47;8.30;;;5.82;;
47153;SDS011;32907;41.412;2.164;2023-06-14T18:59:15;7.82;;;5.10;;
47153;SDS011;32907;41.412;2.164;2023-06-14T19:01:42;11.55;;;8.20;;
47153;SDS011;32907;41.412;2.164;2023-06-14T19:04:11;9.02;;;7.55;;
47153;SDS011;32907;41.412;2.164;2023-06-14T19:06:39;10.48;;;8.20;;
47153;SDS011;32907;41.412;2.164;2023-06-14T19:09:09;14.05;;;10.68;;
47153;SDS011;32907;41.412;2.164;2023-06-14T19:11:37;15.13;;;13.63;;
47153;SDS011;32907;41.412;2.164;2023-06-14T19:14:04;13.27;;;11.57;;
47153;SDS011;32907;41.412;2.164;2023-06-14T19:16:32;13.48;;;10.38;;
47153;SDS011;32907;41.412;2.164;2023-06-14T19:19:00;13.48;;;10.15;;
47153;SDS011;32907;41.412;2.164;2023-06-14T19:21:28;11.40;;;7.88;;
47153;SDS011;32907;41.412;2.164;2023-06-14T19:23:56;10.10;;;7.05;;
47153;SDS011;32907;41.412;2.164;2023-06-14T19:26:24;5.97;;;4.90;;
47153;SDS011;32907;41.412;2.164;2023-06-14T19:28:53;5.20;;;4.22;;
47153;SDS011;32907;41.412;2.164;2023-06-14T19:31:26;6.35;;;4.57;;
47153;SDS011;32907;41.412;2.164;2023-06-14T19:33:57;7.10;;;6.00;;
47153;SDS011;32907;41.412;2.164;2023-06-14T19:36:26;9.82;;;6.63;;
47153;SDS011;32907;41.412;2.164;2023-06-14T19:38:53;7.68;;;4.82;;
47153;SDS011;32907;41.412;2.164;2023-06-14T19:41:23;6.32;;;4.47;;
47153;SDS011;32907;41.412;2.164;2023-06-14T19:43:55;7.00;;;4.68;;
47153;SDS011;32907;41.412;2.164;2023-06-14T19:46:23;9.05;;;5.13;;
47153;SDS011;32907;41.412;2.164;2023-06-14T19:48:52;8.43;;;4.53;;
47153;SDS011;32907;41.412;2.164;2023-06-14T19:51:20;8.07;;;4.30;;
47153;SDS011;32907;41.412;2.164;2023-06-14T19:53:48;5.78;;;4.25;;
47153;SDS011;32907;41.412;2.164;2023-06-14T19:56:16;5.95;;;4.07;;
47153;SDS011;32907;41.412;2.164;2023-06-14T19:58:43;6.72;;;3.40;;
47153;SDS011;32907;41.412;2.164;2023-06-14T20:01:12;9.70;;;4.60;;
47153;SDS011;32907;41.412;2.164;2023-06-14T20:03:40;10.35;;;5.30;;
47153;SDS011;32907;41.412;2.164;2023-06-14T20:06:12;5.68;;;3.90;;
47153;SDS011;32907;41.412;2.164;2023-06-14T20:08:40;7.72;;;4.38;;
47153;SDS011;32907;41.412;2.164;2023-06-14T20:11:08;10.95;;;5.65;;
47153;SDS011;32907;41.412;2.164;2023-06-14T20:13:36;7.75;;;4.75;;
47153;SDS011;32907;41.412;2.164;2023-06-14T20:16:04;7.63;;;4.03;;
47153;SDS011;32907;41.412;2.164;2023-06-14T20:18:33;6.82;;;3.90;;
47153;SDS011;32907;41.412;2.164;2023-06-14T20:21:01;5.65;;;3.15;;
47153;SDS011;32907;41.412;2.164;2023-06-14T20:23:31;7.50;;;3.45;;
47153;SDS011;32907;41.412;2.164;2023-06-14T20:25:59;4.90;;;3.38;;
47153;SDS011;32907;41.412;2.164;2023-06-14T20:28:28;7.38;;;4.47;;
47153;SDS011;32907;41.412;2.164;2023-06-14T20:30:56;7.85;;;4.90;;
47153;SDS011;32907;41.412;2.164;2023-06-14T20:33:23;6.57;;;5.03;;
47153;SDS011;32907;41.412;2.164;2023-06-14T20:35:53;7.80;;;6.20;;
47153;SDS011;32907;41.412;2.164;2023-06-14T20:38:22;6.05;;;5.40;;
47153;SDS011;32907;41.412;2.164;2023-06-14T20:40:50;5.32;;;4.13;;
47153;SDS011;32907;41.412;2.164;2023-06-14T20:43:19;7.95;;;5.50;;
47153;SDS011;32907;41.412;2.164;2023-06-14T20:45:48;9.82;;;6.15;;
47153;SDS011;32907;41.412;2.164;2023-06-14T20:48:16;7.38;;;5.00;;
47153;SDS011;32907;41.412;2.164;2023-06-14T20:50:44;7.00;;;5.85;;
47153;SDS011;32907;41.412;2.164;2023-06-14T20:53:14;8.35;;;6.07;;
47153;SDS011;32907;41.412;2.164;2023-06-14T20:55:42;6.82;;;5.00;;
47153;SDS011;32907;41.412;2.164;2023-06-14T20:58:10;5.60;;;4.07;;
47153;SDS011;32907;41.412;2.164;2023-06-14T21:00:39;4.85;;;3.47;;
47153;SDS011;32907;41.412;2.164;2023-06-14T21:03:08;4.72;;;2.90;;
47153;SDS011;32907;41.412;2.164;2023-06-14T21:05:37;9.32;;;4.25;;
47153;SDS011;32907;41.412;2.164;2023-06-14T21:08:05;6.07;;;3.85;;
47153;SDS011;32907;41.412;2.164;2023-06-14T21:10:34;5.50;;;3.72;;
47153;SDS011;32907;41.412;2.164;2023-06-14T21:13:05;5.50;;;3.72;;
47153;SDS011;32907;41.412;2.164;2023-06-14T21:15:33;6.35;;;3.92;;
47153;SDS011;32907;41.412;2.164;2023-06-14T21:18:01;7.32;;;3.70;;
47153;SDS011;32907;41.412;2.164;2023-06-14T21:20:29;6.20;;;3.30;;
47153;SDS011;32907;41.412;2.164;2023-06-14T21:22:57;4.78;;;3.53;;
47153;SDS011;32907;41.412;2.164;2023-06-14T21:25:25;5.65;;;4.38;;
47153;SDS011;32907;41.412;2.164;2023-06-14T21:27:52;5.25;;;3.65;;
47153;SDS011;32907;41.412;2.164;2023-06-14T21:30:30;4.82;;;3.15;;
47153;SDS011;32907;41.412;2.164;2023-06-14T21:33:03;5.45;;;3.55;;
47153;SDS011;32907;41.412;2.164;2023-06-14T21:35:33;5.00;;;3.67;;
47153;SDS011;32907;41.412;2.164;2023-06-14T21:38:03;8.27;;;3.70;;
47153;SDS011;32907;41.412;2.164;2023-06-14T21:40:30;7.20;;;3.38;;
47153;SDS011;32907;41.412;2.164;2023-06-14T21:42:58;5.13;;;3.03;;
47153;SDS011;32907;41.412;2.164;2023-06-14T21:45:26;3.80;;;2.72;;
47153;SDS011;32907;41.412;2.164;2023-06-14T21:47:55;3.10;;;2.35;;